Terminal Aerodrome Forecast
Issued by NWS

Home | Current Version | Previous Version | Text Only | Print | Product List | Glossary Off
Versions: 1 2 3 4 5 6 7 8 9 10 11 12 13 14 15 16 17 18 19

353
FTUS43 KGRB 030819 AAA
TAFMTW
TAF AMD
KMTW 030819Z 0308/0406 01006KT 3SM -RADZ BR OVC003
      TEMPO 0308/0312 1SM -FZDZSN BR
     FM031200 35008KT 2SM -FZDZSN BR BKN007
      TEMPO 0314/0318 3/4SM -SN OVC005
     FM032100 31014G23KT 5SM -SHSN SCT012 OVC025
     FM032300 31010KT P6SM SCT025 BKN040=

USA.gov is the U.S. government's official web portal to all federal, state and local government web resources and services.